Time;durP1;ratioP1;P1;durP2;ratioP2;P2;SDS_P1;SDS_P2;PMS_P1;PMS_P2;Temp;Humidity;BMP_temperature;BMP_pressure;BME280_temperature;BME280_humidity;BME280_pressure;Samples;Min_cycle;Max_cycle;Signal;HPM_P1;HPM_P2
2022/10/16 00:01:30;;;;;;;14.40;12.77;;;19.70;52.50;;;;;;5093234;28;20606;-40
2022/10/16 00:03:58;;;;;;;14.35;11.73;;;19.60;52.50;;;;;;5092628;28;20175;-42
2022/10/16 00:06:24;;;;;;;16.35;13.23;;;19.60;52.80;;;;;;5092036;28;20172;-42
2022/10/16 00:08:50;;;;;;;15.88;12.75;;;19.60;52.70;;;;;;5092479;28;20178;-41
2022/10/16 00:11:25;;;;;;;13.80;11.82;;;19.60;52.90;;;;;;5092237;28;20302;-42
2022/10/16 00:13:56;;;;;;;15.55;12.40;;;19.60;52.80;;;;;;5092617;28;20244;-42
2022/10/16 00:16:22;;;;;;;14.98;13.25;;;19.60;52.80;;;;;;5091905;28;20169;-42
2022/10/16 00:18:48;;;;;;;15.45;11.65;;;19.60;52.60;;;;;;5092429;28;20180;-42
2022/10/16 00:21:20;;;;;;;15.70;11.77;;;19.50;52.60;;;;;;5092305;28;20571;-42
2022/10/16 00:23:46;;;;;;;17.05;12.57;;;19.50;52.90;;;;;;5092330;28;20804;-42
2022/10/16 00:26:17;;;;;;;14.77;12.25;;;19.50;52.60;;;;;;5091675;28;20186;-42
2022/10/16 00:28:46;;;;;;;20.42;12.50;;;19.50;52.90;;;;;;5092280;28;20177;-42
2022/10/16 00:31:12;;;;;;;15.57;13.77;;;19.50;52.90;;;;;;5092143;28;20200;-42
2022/10/16 00:33:39;;;;;;;28.55;23.20;;;19.50;52.80;;;;;;5092179;28;20581;-42
2022/10/16 00:36:07;;;;;;;22.35;19.17;;;19.50;52.80;;;;;;5091493;28;20184;-42
2022/10/16 00:38:33;;;;;;;22.40;17.48;;;19.50;52.80;;;;;;5092168;28;20175;-42
2022/10/16 00:40:59;;;;;;;18.50;14.88;;;19.50;52.70;;;;;;5092172;28;20200;-40
2022/10/16 00:43:34;;;;;;;13.93;12.32;;;19.50;52.70;;;;;;5092083;28;20171;-42
2022/10/16 00:46:02;;;;;;;16.80;13.10;;;19.50;52.60;;;;;;5091424;28;20168;-42
2022/10/16 00:48:28;;;;;;;18.05;14.63;;;19.40;52.60;;;;;;5092316;28;20175;-42
2022/10/16 00:50:55;;;;;;;15.82;13.98;;;19.40;52.50;;;;;;5095813;28;20200;-42
2022/10/16 00:53:21;;;;;;;18.17;13.73;;;19.40;52.40;;;;;;5096370;28;20168;-42
2022/10/16 00:55:47;;;;;;;16.05;13.50;;;19.40;52.50;;;;;;5095611;28;20171;-42
2022/10/16 00:58:13;;;;;;;15.53;13.43;;;19.40;52.70;;;;;;5096130;28;20160;-42
2022/10/16 01:00:39;;;;;;;12.90;11.50;;;19.30;52.70;;;;;;5096024;28;20199;-41
2022/10/16 01:03:24;;;;;;;17.20;12.43;;;19.40;52.80;;;;;;5095994;28;20258;-42
2022/10/16 01:06:03;;;;;;;15.05;12.07;;;19.40;52.80;;;;;;5095434;28;20655;-42
2022/10/16 01:09:04;;;;;;;15.65;12.55;;;19.40;52.80;;;;;;5096014;28;20171;-42
2022/10/16 01:12:04;;;;;;;14.82;12.07;;;19.40;52.90;;;;;;5091482;28;20234;-42
2022/10/16 01:14:53;;;;;;;16.08;14.02;;;19.40;53.00;;;;;;5095952;28;20194;-42
2022/10/16 01:17:25;;;;;;;14.65;12.18;;;19.40;53.10;;;;;;5095510;28;20152;-42
2022/10/16 01:20:09;;;;;;;16.38;12.73;;;19.40;53.10;;;;;;5095677;28;20305;-42
2022/10/16 01:23:07;;;;;;;18.73;16.73;;;19.50;53.30;;;;;;5095703;28;20225;-42
2022/10/16 01:26:10;;;;;;;17.65;15.63;;;19.50;53.20;;;;;;5062195;28;20180;-41
2022/10/16 01:29:04;;;;;;;15.90;13.15;;;19.50;53.20;;;;;;5095557;28;20186;-42
2022/10/16 01:31:35;;;;;;;14.13;12.10;;;19.50;53.30;;;;;;5095449;28;20290;-42
2022/10/16 01:34:05;;;;;;;14.65;13.15;;;19.50;53.50;;;;;;5095771;28;20160;-42
2022/10/16 01:36:45;;;;;;;12.45;11.15;;;19.50;53.80;;;;;;5094735;28;20191;-42
2022/10/16 01:39:11;;;;;;;13.30;11.88;;;19.50;53.60;;;;;;5095403;28;20202;-42
2022/10/16 01:41:46;;;;;;;13.10;11.63;;;19.50;53.60;;;;;;5095409;28;20200;-42
2022/10/16 01:44:34;;;;;;;14.82;12.07;;;19.60;53.60;;;;;;5095332;28;20172;-41
2022/10/16 01:47:00;;;;;;;12.32;11.07;;;19.60;53.60;;;;;;5094895;28;20175;-42
2022/10/16 01:49:31;;;;;;;15.70;12.07;;;19.60;53.80;;;;;;5095267;28;20176;-42
2022/10/16 01:52:00;;;;;;;14.32;12.43;;;19.70;53.80;;;;;;5094957;28;20227;-40
2022/10/16 01:54:28;;;;;;;14.30;12.65;;;19.70;53.80;;;;;;5095365;28;20172;-42
2022/10/16 01:56:55;;;;;;;13.18;11.55;;;19.70;53.80;;;;;;5094424;28;20179;-42
2022/10/16 01:59:25;;;;;;;13.32;11.93;;;19.70;53.80;;;;;;5095004;28;20179;-42
2022/10/16 02:01:55;;;;;;;13.93;12.30;;;19.70;53.90;;;;;;5093780;28;20620;-42
2022/10/16 02:04:51;;;;;;;14.02;12.35;;;19.70;53.90;;;;;;5094890;28;20221;-42
2022/10/16 02:07:16;;;;;;;15.35;13.38;;;19.70;53.70;;;;;;5065093;28;20240;-42
2022/10/16 02:09:42;;;;;;;15.03;13.50;;;19.70;53.90;;;;;;5094542;28;20171;-42
2022/10/16 02:12:29;;;;;;;15.40;13.33;;;19.70;53.70;;;;;;5094931;28;20196;-42
2022/10/16 02:14:56;;;;;;;16.55;13.40;;;19.80;53.70;;;;;;5094772;28;20394;-42
2022/10/16 02:17:22;;;;;;;15.40;13.90;;;19.80;53.70;;;;;;5094121;28;20172;-42
2022/10/16 02:19:51;;;;;;;15.07;13.00;;;19.80;53.60;;;;;;5094838;28;20676;-41
2022/10/16 02:22:32;;;;;;;13.27;11.88;;;19.80;53.70;;;;;;5094445;28;20196;-43
2022/10/16 02:25:06;;;;;;;18.35;12.10;;;19.90;53.60;;;;;;5094569;28;20159;-42
2022/10/16 02:27:34;;;;;;;14.63;13.13;;;19.90;53.60;;;;;;5094291;28;20566;-42
2022/10/16 02:30:17;;;;;;;14.65;13.07;;;19.90;53.50;;;;;;5094337;28;20168;-42
2022/10/16 02:32:46;;;;;;;15.60;13.93;;;19.90;53.50;;;;;;5094269;28;20196;-41
2022/10/16 02:35:13;;;;;;;16.70;13.07;;;19.90;53.50;;;;;;5094582;28;20264;-40
2022/10/16 02:37:40;;;;;;;15.73;13.80;;;19.90;53.50;;;;;;5093821;28;20176;-41
2022/10/16 02:40:07;;;;;;;14.75;12.60;;;19.90;53.50;;;;;;5094178;28;20187;-42
2022/10/16 02:42:38;;;;;;;17.20;14.55;;;19.90;53.50;;;;;;5094148;28;20816;-41
2022/10/16 02:45:08;;;;;;;15.57;12.48;;;19.90;53.40;;;;;;5094186;28;20180;-43
2022/10/16 02:47:34;;;;;;;15.45;13.82;;;19.90;53.40;;;;;;5093472;28;20176;-42
2022/10/16 02:50:00;;;;;;;16.17;14.47;;;20.00;53.40;;;;;;5094109;28;20760;-42
2022/10/16 02:52:26;;;;;;;13.90;12.40;;;20.00;53.40;;;;;;5093901;28;20549;-42
2022/10/16 02:54:52;;;;;;;15.43;12.90;;;20.00;53.40;;;;;;5094243;28;20398;-42
2022/10/16 02:57:18;;;;;;;15.83;14.20;;;20.00;53.40;;;;;;5093617;28;20921;-42
2022/10/16 02:59:44;;;;;;;15.53;13.67;;;20.00;53.30;;;;;;5093489;28;20172;-42
2022/10/16 03:02:11;;;;;;;16.10;14.00;;;20.00;53.30;;;;;;5093794;28;20409;-40
2022/10/16 03:04:37;;;;;;;14.98;11.65;;;20.00;53.30;;;;;;5093943;28;20282;-42
2022/10/16 03:07:03;;;;;;;18.58;13.57;;;20.00;53.20;;;;;;5092989;28;20172;-42
2022/10/16 03:09:28;;;;;;;15.97;12.57;;;20.00;53.10;;;;;;5093364;28;20659;-42
2022/10/16 03:11:54;;;;;;;14.07;12.67;;;20.10;53.20;;;;;;5093285;28;20972;-42
2022/10/16 03:14:20;;;;;;;13.97;12.07;;;20.10;53.10;;;;;;5093472;28;20171;-42
2022/10/16 03:16:46;;;;;;;16.70;12.97;;;20.00;53.00;;;;;;5093080;28;20751;-42
2022/10/16 03:19:12;;;;;;;16.57;12.50;;;20.10;53.00;;;;;;5093376;28;20505;-41
2022/10/16 03:21:37;;;;;;;14.53;12.40;;;20.00;53.00;;;;;;5093352;28;20187;-42
2022/10/16 03:24:03;;;;;;;15.17;13.17;;;20.00;52.90;;;;;;5093338;28;20250;-42
2022/10/16 03:26:29;;;;;;;19.35;12.73;;;20.00;52.90;;;;;;5092725;28;20172;-42
2022/10/16 03:28:55;;;;;;;17.50;13.43;;;20.00;52.90;;;;;;5093465;28;20186;-42
2022/10/16 03:31:20;;;;;;;16.10;11.77;;;20.00;52.90;;;;;;5093107;28;20203;-42
2022/10/16 03:33:46;;;;;;;14.17;12.67;;;20.00;52.90;;;;;;5093170;28;20175;-42
2022/10/16 03:36:12;;;;;;;15.93;12.77;;;20.00;52.80;;;;;;5092770;28;20172;-41
2022/10/16 03:38:38;;;;;;;16.30;13.00;;;20.00;52.80;;;;;;5093425;28;20176;-42
2022/10/16 03:41:04;;;;;;;13.80;11.50;;;19.90;52.90;;;;;;5093069;28;20606;-42
2022/10/16 03:43:29;;;;;;;15.65;12.52;;;19.90;52.90;;;;;;5092909;28;20221;-42
2022/10/16 03:45:55;;;;;;;13.03;11.43;;;19.90;52.90;;;;;;5092433;28;20167;-42
2022/10/16 03:48:21;;;;;;;14.43;12.80;;;19.90;52.90;;;;;;5093072;28;20172;-42
2022/10/16 03:50:48;;;;;;;15.53;12.83;;;19.90;52.90;;;;;;5092615;28;20453;-42
2022/10/16 03:53:14;;;;;;;13.32;11.90;;;19.90;52.90;;;;;;5093185;28;20489;-42
2022/10/16 03:55:42;;;;;;;14.57;12.50;;;19.90;52.90;;;;;;5092485;28;20179;-42
2022/10/16 03:58:07;;;;;;;13.05;11.65;;;19.90;52.90;;;;;;5092953;28;20168;-42
2022/10/16 04:00:34;;;;;;;12.97;10.80;;;19.90;52.90;;;;;;5092637;28;20714;-41
2022/10/16 04:03:00;;;;;;;15.27;13.75;;;19.80;52.80;;;;;;5092720;28;20160;-42
2022/10/16 04:05:26;;;;;;;15.20;13.05;;;19.80;52.90;;;;;;5092758;28;20184;-42
2022/10/16 04:07:52;;;;;;;12.73;11.27;;;19.80;52.90;;;;;;5092387;28;20217;-41
2022/10/16 04:10:18;;;;;;;14.40;12.87;;;19.70;53.00;;;;;;5092502;28;20274;-41
2022/10/16 04:12:44;;;;;;;17.85;12.60;;;19.70;53.10;;;;;;5092354;28;20448;-41
2022/10/16 04:15:10;;;;;;;12.63;11.33;;;19.70;53.20;;;;;;5092727;28;20176;-42
2022/10/16 04:17:36;;;;;;;18.50;14.67;;;19.70;53.40;;;;;;5091889;28;20179;-42
2022/10/16 04:20:03;;;;;;;16.57;13.53;;;19.70;53.40;;;;;;5092655;28;20409;-42
2022/10/16 04:22:28;;;;;;;15.32;13.73;;;19.70;53.40;;;;;;5092523;28;20635;-42
2022/10/16 04:24:54;;;;;;;15.00;13.07;;;19.70;53.40;;;;;;5092262;28;20176;-43
2022/10/16 04:27:20;;;;;;;14.80;13.30;;;19.70;53.60;;;;;;5091808;28;20187;-41
2022/10/16 04:29:45;;;;;;;14.43;12.47;;;19.70;53.50;;;;;;5092416;28;20207;-42
2022/10/16 04:32:11;;;;;;;14.87;12.33;;;19.70;53.60;;;;;;5092203;28;20607;-42
2022/10/16 04:34:39;;;;;;;15.03;13.53;;;19.70;53.40;;;;;;5092195;28;20179;-42
2022/10/16 04:37:05;;;;;;;14.95;13.27;;;19.80;53.40;;;;;;5091638;28;20237;-42
2022/10/16 04:39:31;;;;;;;15.50;13.90;;;19.80;53.50;;;;;;5092205;28;20169;-42
2022/10/16 04:41:57;;;;;;;14.57;13.03;;;19.80;53.40;;;;;;5092408;28;20191;-42
2022/10/16 04:44:22;;;;;;;15.00;12.47;;;19.80;53.50;;;;;;5092112;28;20179;-42
2022/10/16 04:46:50;;;;;;;14.40;12.90;;;19.70;53.50;;;;;;5091473;28;20172;-42
2022/10/16 04:49:16;;;;;;;13.43;12.02;;;19.70;53.50;;;;;;5092059;28;20172;-42
2022/10/16 04:51:42;;;;;;;16.30;13.07;;;19.70;53.60;;;;;;5091829;28;20529;-42
2022/10/16 04:54:09;;;;;;;14.63;13.13;;;19.70;53.50;;;;;;5092003;28;20164;-42
2022/10/16 04:56:42;;;;;;;13.73;11.85;;;19.70;53.40;;;;;;5091709;28;20174;-42
2022/10/16 04:59:08;;;;;;;18.05;13.73;;;19.70;53.50;;;;;;5091939;28;20233;-42
2022/10/16 05:01:34;;;;;;;16.02;13.43;;;19.70;53.60;;;;;;5091803;28;20295;-42
2022/10/16 05:04:00;;;;;;;17.00;15.20;;;19.70;53.70;;;;;;5091881;28;20251;-42
2022/10/16 05:06:26;;;;;;;13.63;11.87;;;19.70;53.80;;;;;;5091329;28;20244;-42
2022/10/16 05:08:51;;;;;;;16.60;13.70;;;19.70;53.90;;;;;;5091777;28;20172;-42
2022/10/16 05:11:17;;;;;;;14.77;13.27;;;19.70;53.80;;;;;;5091926;28;20203;-42
2022/10/16 05:13:43;;;;;;;16.93;13.50;;;19.70;53.90;;;;;;5091795;28;20168;-43
2022/10/16 05:16:09;;;;;;;15.00;12.70;;;19.70;53.90;;;;;;5091281;28;20171;-42
2022/10/16 05:18:34;;;;;;;14.77;13.27;;;19.70;53.90;;;;;;5091765;28;20168;-42
2022/10/16 05:21:00;;;;;;;15.07;13.53;;;19.70;53.80;;;;;;5091748;28;20233;-42
2022/10/16 05:23:26;;;;;;;13.87;12.33;;;19.70;53.70;;;;;;5091706;28;20171;-42
2022/10/16 05:25:57;;;;;;;17.07;12.67;;;19.80;53.60;;;;;;5091187;28;20167;-42
2022/10/16 05:28:27;;;;;;;13.85;12.45;;;19.80;53.50;;;;;;5091937;28;20652;-42
2022/10/16 05:30:54;;;;;;;13.55;12.15;;;19.80;53.50;;;;;;5091468;28;20303;-42
2022/10/16 05:33:21;;;;;;;14.65;12.15;;;19.80;53.50;;;;;;5091886;28;20168;-42
2022/10/16 05:35:46;;;;;;;15.30;12.88;;;19.80;53.40;;;;;;5091151;28;20172;-42
2022/10/16 05:38:12;;;;;;;15.27;12.97;;;19.80;53.40;;;;;;5095471;28;20701;-43
2022/10/16 05:40:38;;;;;;;14.57;11.70;;;19.80;53.40;;;;;;5095321;28;20180;-42
2022/10/16 05:43:04;;;;;;;12.53;9.90;;;19.80;53.30;;;;;;5095557;28;20199;-42
2022/10/16 05:45:30;;;;;;;13.90;11.93;;;19.70;53.20;;;;;;5095097;28;20916;-42
2022/10/16 05:47:56;;;;;;;14.43;12.75;;;19.70;53.30;;;;;;5095171;28;20864;-42
2022/10/16 05:50:21;;;;;;;13.10;11.60;;;19.70;53.30;;;;;;5095053;28;20277;-42
2022/10/16 05:52:47;;;;;;;12.70;11.03;;;19.70;53.30;;;;;;5094939;28;20287;-42
2022/10/16 05:55:13;;;;;;;13.03;11.60;;;19.60;53.10;;;;;;5095162;28;20247;-42
2022/10/16 05:57:39;;;;;;;13.73;11.43;;;19.60;53.10;;;;;;5094494;28;20671;-42
2022/10/16 06:00:05;;;;;;;13.63;11.90;;;19.60;53.10;;;;;;5094920;28;20200;-42
2022/10/16 06:02:31;;;;;;;14.38;12.98;;;19.60;53.20;;;;;;5095161;28;20610;-42
2022/10/16 06:04:56;;;;;;;16.07;11.67;;;19.60;53.20;;;;;;5094913;28;20168;-42
2022/10/16 06:07:23;;;;;;;12.90;11.60;;;19.60;53.30;;;;;;5094335;28;20179;-42
2022/10/16 06:09:50;;;;;;;14.32;12.80;;;19.60;53.20;;;;;;5094936;28;20179;-42
2022/10/16 06:12:16;;;;;;;13.93;12.45;;;19.60;53.20;;;;;;5094748;28;20214;-42
2022/10/16 06:14:42;;;;;;;16.00;12.50;;;19.60;53.30;;;;;;5094715;28;20164;-42
2022/10/16 06:17:07;;;;;;;13.40;10.53;;;19.60;53.30;;;;;;5094058;28;20214;-42
2022/10/16 06:19:33;;;;;;;14.30;12.90;;;19.60;53.30;;;;;;5094575;28;20206;-42
2022/10/16 06:22:00;;;;;;;13.93;12.53;;;19.60;53.50;;;;;;5094488;28;20192;-42
2022/10/16 06:24:25;;;;;;;15.70;13.70;;;19.60;53.60;;;;;;5094815;28;20204;-43
2022/10/16 06:26:51;;;;;;;14.90;13.30;;;19.60;53.80;;;;;;5094125;28;20873;-42
2022/10/16 06:29:17;;;;;;;13.00;11.70;;;19.80;53.90;;;;;;5094663;28;20402;-42
2022/10/16 06:31:43;;;;;;;14.70;13.00;;;19.80;53.90;;;;;;5094273;28;20218;-42
2022/10/16 06:34:11;;;;;;;14.50;13.00;;;19.80;53.90;;;;;;5094318;28;20164;-43
2022/10/16 06:36:38;;;;;;;13.70;12.30;;;19.90;53.90;;;;;;5093989;28;20175;-42
2022/10/16 06:39:06;;;;;;;15.02;13.43;;;19.90;53.90;;;;;;5094269;28;20179;-42
2022/10/16 06:41:32;;;;;;;14.88;13.27;;;20.00;53.90;;;;;;5094261;28;20548;-42
2022/10/16 06:43:58;;;;;;;15.00;13.48;;;20.00;53.90;;;;;;5094107;28;20588;-42
2022/10/16 06:46:25;;;;;;;14.53;13.03;;;20.00;53.80;;;;;;5093476;28;20196;-41
2022/10/16 06:48:52;;;;;;;15.85;14.15;;;20.10;53.90;;;;;;5093684;28;20168;-42
2022/10/16 06:51:21;;;;;;;14.73;13.23;;;20.20;54.10;;;;;;5093918;28;20204;-42
2022/10/16 06:53:49;;;;;;;14.85;13.25;;;20.20;54.00;;;;;;5094116;28;20196;-42
2022/10/16 06:56:26;;;;;;;16.17;14.23;;;20.30;54.00;;;;;;5093536;28;20199;-42
2022/10/16 06:58:52;;;;;;;21.97;18.03;;;20.30;53.90;;;;;;5094134;28;20156;-42
2022/10/16 07:01:19;;;;;;;15.43;13.80;;;20.40;54.10;;;;;;5093509;28;20445;-42
2022/10/16 07:03:46;;;;;;;14.57;12.82;;;20.50;54.00;;;;;;5093750;28;20172;-42
2022/10/16 07:06:14;;;;;;;16.67;14.60;;;21.20;54.20;;;;;;5093356;28;20164;-42
2022/10/16 07:08:43;;;;;;;16.33;14.73;;;20.50;53.70;;;;;;5093960;28;20187;-42
2022/10/16 07:11:12;;;;;;;15.90;13.10;;;20.60;53.60;;;;;;5093415;28;20465;-42
2022/10/16 07:13:40;;;;;;;15.55;13.45;;;20.60;53.50;;;;;;5093570;28;20236;-42
2022/10/16 07:16:13;;;;;;;15.75;14.05;;;20.60;53.40;;;;;;5092908;28;20160;-42
2022/10/16 07:18:40;;;;;;;15.63;12.90;;;20.70;53.50;;;;;;5093493;28;20651;-42
2022/10/16 07:21:21;;;;;;;16.77;14.95;;;20.70;53.40;;;;;;5093715;28;20207;-42
2022/10/16 07:23:55;;;;;;;15.57;13.95;;;20.80;53.30;;;;;;5093629;28;20220;-41
2022/10/16 07:26:21;;;;;;;15.20;13.60;;;20.80;53.20;;;;;;5092719;28;20164;-42
2022/10/16 07:28:47;;;;;;;15.18;13.57;;;20.80;53.30;;;;;;5093602;28;20240;-42
2022/10/16 07:31:15;;;;;;;16.20;14.50;;;20.80;53.20;;;;;;5093060;28;20671;-41
2022/10/16 07:33:44;;;;;;;16.17;14.57;;;20.90;53.20;;;;;;5093198;28;20413;-42
2022/10/16 07:36:10;;;;;;;18.13;14.68;;;20.90;53.20;;;;;;5092542;28;20257;-42
2022/10/16 07:38:36;;;;;;;17.47;15.63;;;20.90;53.00;;;;;;5093117;28;20160;-42
2022/10/16 07:41:07;;;;;;;17.07;14.47;;;20.90;52.90;;;;;;5093245;28;20551;-42
2022/10/16 07:43:33;;;;;;;15.77;13.30;;;20.90;52.90;;;;;;5093145;28;20175;-42
2022/10/16 07:45:59;;;;;;;15.73;13.53;;;21.00;53.00;;;;;;5092329;28;20222;-42
2022/10/16 07:48:31;;;;;;;15.33;13.67;;;21.00;53.10;;;;;;5092858;28;20405;-41
2022/10/16 07:51:01;;;;;;;15.47;13.97;;;21.00;53.90;;;;;;5092724;28;20426;-42
2022/10/16 07:53:27;;;;;;;16.37;14.67;;;21.00;53.20;;;;;;5092853;28;20406;-43
2022/10/16 07:55:58;;;;;;;15.80;14.20;;;21.00;53.10;;;;;;5092133;28;20406;-43
2022/10/16 07:58:24;;;;;;;14.80;13.23;;;21.10;53.00;;;;;;5092282;28;20397;-42
2022/10/16 08:00:49;;;;;;;14.90;12.90;;;21.10;53.00;;;;;;5092243;28;20434;-42
2022/10/16 08:03:15;;;;;;;15.13;13.63;;;21.20;53.00;;;;;;5092923;28;20175;-42
2022/10/16 08:05:41;;;;;;;16.80;15.10;;;21.30;53.00;;;;;;5092056;28;20625;-43
2022/10/16 08:08:11;;;;;;;14.97;13.47;;;21.30;52.90;;;;;;5092416;28;20229;-42
2022/10/16 08:10:37;;;;;;;14.77;13.37;;;21.40;52.90;;;;;;5092541;28;20234;-42
2022/10/16 08:13:02;;;;;;;14.90;13.40;;;21.50;52.80;;;;;;5092471;28;20493;-43
2022/10/16 08:15:28;;;;;;;13.73;12.43;;;21.60;52.60;;;;;;5092587;28;20275;-43
2022/10/16 08:17:59;;;;;;;15.10;12.90;;;21.60;52.60;;;;;;5091941;28;20168;-42
2022/10/16 08:20:26;;;;;;;13.50;12.30;;;21.70;52.40;;;;;;5092648;28;20199;-43
2022/10/16 08:22:52;;;;;;;13.63;11.97;;;21.80;52.10;;;;;;5092377;28;20417;-43
2022/10/16 08:25:17;;;;;;;12.23;11.03;;;21.80;52.00;;;;;;5092382;28;20414;-42
2022/10/16 08:27:44;;;;;;;12.47;11.23;;;21.80;52.00;;;;;;5091706;28;20647;-42
2022/10/16 08:30:11;;;;;;;15.27;11.83;;;21.90;52.50;;;;;;5092538;28;20373;-42
2022/10/16 08:32:36;;;;;;;16.57;11.60;;;21.90;51.90;;;;;;5092176;28;20817;-43
2022/10/16 08:35:02;;;;;;;11.47;10.27;;;22.00;51.50;;;;;;5092300;28;20497;-42
2022/10/16 08:37:32;;;;;;;19.20;10.53;;;22.00;51.60;;;;;;5091836;28;20287;-43
2022/10/16 08:40:01;;;;;;;12.20;10.93;;;22.10;51.70;;;;;;5092028;28;20417;-42
2022/10/16 08:42:54;;;;;;;12.67;11.37;;;22.20;51.70;;;;;;5092008;28;20412;-43
2022/10/16 08:45:33;;;;;;;11.00;9.90;;;22.20;51.50;;;;;;5092128;28;20389;-43
2022/10/16 08:48:13;;;;;;;12.00;9.93;;;22.30;51.50;;;;;;5092128;28;20459;-43
2022/10/16 08:50:40;;;;;;;10.00;8.60;;;22.40;51.60;;;;;;5092068;28;20548;-43
2022/10/16 08:53:10;;;;;;;11.07;9.97;;;22.40;51.20;;;;;;5092029;28;20418;-43
2022/10/16 08:55:46;;;;;;;9.80;8.90;;;22.50;51.00;;;;;;5091694;28;20414;-43
2022/10/16 08:58:18;;;;;;;10.80;9.70;;;22.70;50.40;;;;;;5091930;28;20401;-43
2022/10/16 09:00:47;;;;;;;9.27;8.37;;;23.00;50.80;;;;;;5091697;28;20437;-43
2022/10/16 09:03:32;;;;;;;8.20;7.50;;;23.30;49.70;;;;;;5092135;28;20873;-43
2022/10/16 09:06:18;;;;;;;9.53;6.60;;;23.70;49.50;;;;;;5091321;28;20429;-44
2022/10/16 09:09:05;;;;;;;7.50;6.80;;;24.00;48.10;;;;;;5091896;28;20439;-43
2022/10/16 09:12:05;;;;;;;6.40;5.80;;;24.40;48.00;;;;;;5094806;28;20449;-44
2022/10/16 09:14:51;;;;;;;7.70;7.00;;;24.70;45.50;;;;;;5081348;28;20509;-44
2022/10/16 09:17:25;;;;;;;7.37;6.67;;;25.00;45.20;;;;;;5095331;28;20406;-43
2022/10/16 09:20:10;;;;;;;8.30;6.80;;;25.10;44.30;;;;;;5095716;28;20405;-44
2022/10/16 09:22:36;;;;;;;7.00;6.00;;;25.20;44.70;;;;;;5095702;28;20447;-43
2022/10/16 09:25:12;;;;;;;8.33;7.43;;;25.30;44.30;;;;;;5095610;28;20401;-43
2022/10/16 09:27:38;;;;;;;7.93;7.13;;;25.50;43.70;;;;;;5095259;28;20406;-44
2022/10/16 09:30:12;;;;;;;6.97;6.00;;;25.60;42.10;;;;;;5095595;28;20813;-43
2022/10/16 09:32:40;;;;;;;7.03;6.37;;;25.60;42.60;;;;;;5095469;28;20535;-43
2022/10/16 09:35:16;;;;;;;6.63;6.00;;;25.60;41.30;;;;;;5095410;28;20506;-43
2022/10/16 09:37:45;;;;;;;6.87;6.23;;;25.50;41.80;;;;;;5094874;28;20447;-42
2022/10/16 09:40:34;;;;;;;7.93;6.40;;;25.30;42.40;;;;;;5095285;28;20430;-44
2022/10/16 09:43:25;;;;;;;7.90;7.10;;;25.20;42.80;;;;;;5095357;28;20486;-43
2022/10/16 09:45:56;;;;;;;6.50;5.73;;;25.00;43.10;;;;;;5094605;28;20406;-44
2022/10/16 09:48:22;;;;;;;7.00;6.40;;;24.90;43.50;;;;;;5095483;28;20446;-43
2022/10/16 09:50:58;;;;;;;6.10;5.50;;;24.90;44.10;;;;;;5095276;28;20426;-44
2022/10/16 09:53:37;;;;;;;7.50;6.80;;;24.90;44.30;;;;;;5095145;28;20484;-44
2022/10/16 09:56:05;;;;;;;6.13;5.53;;;24.90;44.40;;;;;;5094368;28;20886;-43
2022/10/16 09:58:32;;;;;;;6.30;5.70;;;24.90;44.70;;;;;;5094894;28;20405;-43
2022/10/16 10:00:59;;;;;;;5.90;5.40;;;25.10;44.70;;;;;;5094926;28;20479;-43
2022/10/16 10:03:38;;;;;;;8.53;5.50;;;25.20;44.60;;;;;;5094911;28;20890;-43
2022/10/16 10:06:17;;;;;;;5.27;4.77;;;25.30;43.60;;;;;;5094652;28;20390;-43
2022/10/16 10:08:54;;;;;;;4.40;4.00;;;25.40;44.00;;;;;;5095331;28;20444;-44
2022/10/16 10:11:47;;;;;;;4.90;4.10;;;25.50;43.20;;;;;;5094739;28;20485;-43
2022/10/16 10:14:33;;;;;;;3.97;3.60;;;25.60;42.30;;;;;;5094763;28;20493;-44
2022/10/16 10:17:05;;;;;;;5.70;3.97;;;25.60;42.60;;;;;;5094034;28;20897;-43
2022/10/16 10:19:47;;;;;;;4.20;3.80;;;25.50;43.00;;;;;;5094656;28;20410;-43
2022/10/16 10:22:22;;;;;;;7.30;2.77;;;25.60;43.40;;;;;;5093940;28;20479;-44
2022/10/16 10:25:15;;;;;;;5.77;3.80;;;25.70;43.00;;;;;;5093589;28;20830;-44
2022/10/16 10:28:14;;;;;;;3.20;2.90;;;25.70;42.50;;;;;;5093884;28;20917;-44
2022/10/16 10:30:56;;;;;;;3.60;2.93;;;25.80;42.90;;;;;;5094351;28;20422;-44
2022/10/16 10:33:39;;;;;;;3.07;2.77;;;25.90;42.90;;;;;;5094476;28;20447;-44
2022/10/16 10:36:11;;;;;;;2.13;1.60;;;26.10;43.60;;;;;;5094230;28;20402;-44
2022/10/16 10:38:49;;;;;;;3.90;2.40;;;26.20;42.80;;;;;;5094148;28;20402;-44
2022/10/16 10:41:29;;;;;;;3.00;1.03;;;26.30;42.80;;;;;;5094192;28;20938;-42
2022/10/16 10:44:13;;;;;;;1.93;0.90;;;26.40;42.00;;;;;;5094230;28;20416;-43
2022/10/16 10:46:42;;;;;;;1.43;0.80;;;26.60;42.00;;;;;;5093783;28;20402;-43
2022/10/16 10:49:43;;;;;;;1.73;0.90;;;26.50;41.50;;;;;;5094080;28;20402;-43
2022/10/16 10:52:31;;;;;;;1.60;1.00;;;26.60;40.80;;;;;;5093829;28;20948;-43
2022/10/16 10:55:12;;;;;;;1.60;1.00;;;26.60;41.00;;;;;;5093960;28;20492;-43
2022/10/16 10:58:02;;;;;;;1.70;0.93;;;26.60;41.10;;;;;;5075342;28;20406;-43
2022/10/16 11:00:46;;;;;;;2.20;0.90;;;26.60;40.20;;;;;;5093709;28;20446;-43
2022/10/16 11:03:36;;;;;;;1.77;1.00;;;26.60;40.10;;;;;;5094125;28;20421;-42
2022/10/16 11:06:26;;;;;;;1.50;0.63;;;26.50;39.60;;;;;;5093258;28;20418;-43
2022/10/16 11:09:07;;;;;;;1.50;1.00;;;26.60;40.10;;;;;;5083386;28;20422;-43
2022/10/16 11:11:52;;;;;;;1.50;1.00;;;27.00;39.90;;;;;;5093580;28;20553;-43
2022/10/16 11:14:21;;;;;;;2.13;1.23;;;27.30;40.00;;;;;;5093658;28;20398;-42
2022/10/16 11:17:01;;;;;;;1.93;0.83;;;27.40;38.80;;;;;;5092991;28;20402;-43
2022/10/16 11:19:42;;;;;;;2.00;1.37;;;27.40;38.10;;;;;;5093541;28;20414;-43
2022/10/16 11:22:30;;;;;;;2.33;0.90;;;27.30;38.40;;;;;;5093373;28;20490;-43
2022/10/16 11:25:25;;;;;;;1.20;0.60;;;27.30;38.40;;;;;;5093581;28;20471;-43
2022/10/16 11:28:10;;;;;;;1.77;0.77;;;27.20;38.30;;;;;;5092744;28;20893;-42
2022/10/16 11:30:57;;;;;;;1.30;0.77;;;27.20;37.90;;;;;;5093426;28;20426;-43
2022/10/16 11:33:41;;;;;;;2.03;1.00;;;27.30;38.00;;;;;;5093269;28;20754;-43
2022/10/16 11:36:23;;;;;;;1.33;0.80;;;27.40;38.00;;;;;;5092599;28;20409;-43
2022/10/16 11:39:03;;;;;;;1.30;0.63;;;27.30;38.50;;;;;;5093012;28;20398;-42
2022/10/16 11:41:47;;;;;;;2.30;0.90;;;27.20;38.30;;;;;;5074838;28;20975;-43
2022/10/16 11:44:20;;;;;;;1.10;0.60;;;27.00;38.20;;;;;;5094052;28;20443;-43
2022/10/16 11:47:13;;;;;;;1.77;0.60;;;26.90;38.30;;;;;;5092938;28;20486;-43
2022/10/16 11:49:41;;;;;;;1.73;0.93;;;27.00;39.00;;;;;;5051990;28;20420;-43
2022/10/16 11:52:20;;;;;;;1.47;0.80;;;27.00;39.20;;;;;;5093144;28;20449;-43
2022/10/16 11:54:57;;;;;;;1.40;0.70;;;27.10;39.10;;;;;;5092819;28;20764;-42
2022/10/16 11:57:39;;;;;;;1.93;0.87;;;27.60;38.80;;;;;;5092316;28;20472;-43
2022/10/16 12:00:28;;;;;;;1.40;0.70;;;28.10;38.60;;;;;;5092821;28;20440;-43
2022/10/16 12:03:20;;;;;;;2.13;1.10;;;28.20;38.10;;;;;;5092995;28;20402;-42
2022/10/16 12:06:06;;;;;;;1.60;1.10;;;29.00;37.60;;;;;;5092106;28;20390;-43
2022/10/16 12:08:35;;;;;;;1.97;0.97;;;29.50;36.50;;;;;;5092637;28;20391;-43
2022/10/16 12:11:27;;;;;;;3.30;0.90;;;29.60;35.40;;;;;;5092698;28;20459;-43
2022/10/16 12:14:07;;;;;;;1.40;0.87;;;29.60;35.00;;;;;;5092464;28;20394;-43
2022/10/16 12:16:33;;;;;;;1.07;0.60;;;29.60;35.50;;;;;;5091957;28;20402;-43
2022/10/16 12:19:16;;;;;;;1.30;0.80;;;29.50;35.70;;;;;;5092473;28;20402;-43
2022/10/16 12:21:43;;;;;;;1.67;0.80;;;29.40;34.70;;;;;;5092306;28;20921;-42
2022/10/16 12:24:37;;;;;;;2.00;0.80;;;29.10;34.60;;;;;;5092478;28;20414;-43
2022/10/16 12:27:05;;;;;;;1.30;0.70;;;28.70;34.90;;;;;;5091774;28;20449;-43
2022/10/16 12:29:38;;;;;;;1.40;0.90;;;28.40;35.20;;;;;;5092510;28;20410;-43
2022/10/16 12:32:21;;;;;;;2.63;1.00;;;28.20;35.80;;;;;;5092150;28;20441;-42
2022/10/16 12:34:48;;;;;;;1.30;0.90;;;28.10;36.30;;;;;;5092163;28;20398;-43
2022/10/16 12:37:24;;;;;;;1.70;0.90;;;28.10;36.40;;;;;;5091464;28;20995;-42
2022/10/16 12:39:55;;;;;;;2.00;0.90;;;28.20;36.30;;;;;;5092082;28;20414;-44
2022/10/16 12:42:33;;;;;;;1.30;0.70;;;28.20;36.00;;;;;;5092315;28;20414;-41
2022/10/16 12:45:00;;;;;;;1.60;0.70;;;28.20;36.00;;;;;;5091704;28;20569;-42
2022/10/16 12:47:32;;;;;;;1.77;1.07;;;28.20;35.90;;;;;;5091422;28;20519;-43
2022/10/16 12:49:58;;;;;;;1.63;0.97;;;28.50;36.00;;;;;;5091915;28;20445;-44
2022/10/16 12:52:38;;;;;;;1.37;1.07;;;28.70;35.70;;;;;;5092086;28;20457;-43
2022/10/16 12:55:12;;;;;;;1.30;0.90;;;28.90;36.00;;;;;;5092039;28;20873;-43
2022/10/16 12:57:44;;;;;;;1.60;0.70;;;29.10;36.40;;;;;;5091394;28;20402;-43